createdAt,value
2023-01-23T00:00:09.662Z,965.67
2023-01-23T00:01:09.646Z,965.67
2023-01-23T00:02:09.696Z,965.67
2023-01-23T00:03:09.604Z,965.72
2023-01-23T00:04:09.639Z,965.7
2023-01-23T00:05:09.556Z,965.73
2023-01-23T00:06:09.542Z,965.7
2023-01-23T00:07:09.515Z,965.69
2023-01-23T00:08:09.500Z,965.68
2023-01-23T00:09:09.609Z,965.69
2023-01-23T00:10:09.455Z,965.69
2023-01-23T00:11:09.441Z,965.69
2023-01-23T00:13:09.397Z,965.69
2023-01-23T00:14:09.372Z,965.7
2023-01-23T00:15:09.352Z,965.75
2023-01-23T00:16:09.413Z,965.72
2023-01-23T00:17:09.313Z,965.73
2023-01-23T00:18:09.291Z,965.7
2023-01-23T00:19:09.272Z,965.74
2023-01-23T00:20:09.252Z,965.75
2023-01-23T00:21:09.228Z,965.71
2023-01-23T00:22:09.209Z,965.66
2023-01-23T00:23:09.188Z,965.69
2023-01-23T00:24:09.169Z,965.68
2023-01-23T00:25:09.271Z,965.71
2023-01-23T00:26:09.131Z,965.64
2023-01-23T00:27:09.107Z,965.7
2023-01-23T00:28:09.091Z,965.65
2023-01-23T00:29:09.079Z,965.65
2023-01-23T00:30:09.054Z,965.69
2023-01-23T00:31:09.151Z,965.68
2023-01-23T00:32:09.022Z,965.69
2023-01-23T00:33:08.983Z,965.73
2023-01-23T00:34:08.967Z,965.77
2023-01-23T00:35:08.948Z,965.74
2023-01-23T00:36:08.925Z,965.74
2023-01-23T00:37:08.902Z,965.78
2023-01-23T00:38:08.925Z,965.77
2023-01-23T00:39:08.863Z,965.79
2023-01-23T00:40:08.845Z,965.85
2023-01-23T00:41:08.957Z,965.85
2023-01-23T00:42:08.803Z,965.8
2023-01-23T00:43:08.781Z,965.81
2023-01-23T00:44:08.764Z,965.81
2023-01-23T00:45:08.743Z,965.81
2023-01-23T00:46:08.739Z,965.77
2023-01-23T00:47:08.703Z,965.77
2023-01-23T00:48:08.679Z,965.8
2023-01-23T00:49:08.661Z,965.79
2023-01-23T00:50:08.641Z,965.77
2023-01-23T00:51:08.695Z,965.83
2023-01-23T00:52:08.598Z,965.81
2023-01-23T00:53:08.578Z,965.82
2023-01-23T00:54:08.559Z,965.86
2023-01-23T00:55:08.537Z,965.89
2023-01-23T00:56:08.522Z,965.85
2023-01-23T00:57:08.613Z,965.89
2023-01-23T00:58:08.485Z,965.92
2023-01-23T00:59:08.455Z,965.9
2023-01-23T01:00:08.437Z,965.96
2023-01-23T01:01:08.417Z,965.92
2023-01-23T01:02:08.409Z,965.97
2023-01-23T01:03:08.458Z,965.94
2023-01-23T01:04:08.357Z,965.96
2023-01-23T01:05:08.335Z,966
2023-01-23T01:06:08.314Z,966.02
2023-01-23T01:07:08.292Z,966.07
2023-01-23T01:08:08.275Z,966.1
2023-01-23T01:09:08.253Z,966.08
2023-01-23T01:10:08.235Z,966.15
2023-01-23T01:11:08.215Z,966.1
2023-01-23T01:12:08.195Z,966.16
2023-01-23T01:13:08.297Z,966.18
2023-01-23T01:14:08.151Z,966.13
2023-01-23T01:15:08.132Z,966.14
2023-01-23T01:16:08.193Z,966.12
2023-01-23T01:17:08.091Z,966.16
2023-01-23T01:18:08.096Z,966.16
2023-01-23T01:19:08.386Z,966.15
2023-01-23T01:20:08.035Z,966.1
2023-01-23T01:21:08.060Z,966.12
2023-01-23T01:22:07.988Z,966.12
2023-01-23T01:23:07.974Z,966.16
2023-01-23T01:24:07.947Z,966.17
2023-01-23T01:25:07.928Z,966.19
2023-01-23T01:26:07.926Z,966.18
2023-01-23T01:27:07.888Z,966.21
2023-01-23T01:28:07.866Z,966.23
2023-01-23T01:29:07.973Z,966.21
2023-01-23T01:30:07.831Z,966.26
2023-01-23T01:31:07.934Z,966.26
2023-01-23T01:32:07.784Z,966.25
2023-01-23T01:33:07.770Z,966.24
2023-01-23T01:34:07.744Z,966.27
2023-01-23T01:35:07.725Z,966.25
2023-01-23T01:36:07.703Z,966.3
2023-01-23T01:37:08.574Z,966.29
2023-01-23T01:38:08.542Z,966.28
2023-01-23T01:39:08.536Z,966.32
2023-01-23T01:40:08.504Z,966.3
2023-01-23T01:41:08.509Z,966.32
2023-01-23T01:42:08.458Z,966.35
2023-01-23T01:43:08.447Z,966.37
2023-01-23T01:44:08.415Z,966.43
2023-01-23T01:45:08.519Z,966.4
2023-01-23T01:46:08.535Z,966.47
2023-01-23T01:47:08.355Z,966.47
2023-01-23T01:48:08.332Z,966.5
2023-01-23T01:49:08.315Z,966.48
2023-01-23T01:50:08.291Z,966.49
2023-01-23T01:51:08.298Z,966.5
2023-01-23T01:52:08.250Z,966.49
2023-01-23T01:53:08.232Z,966.47
2023-01-23T01:54:08.210Z,966.51
2023-01-23T01:55:08.191Z,966.52
2023-01-23T01:56:08.176Z,966.49
2023-01-23T01:57:08.150Z,966.46
2023-01-23T01:58:08.129Z,966.47
2023-01-23T01:59:08.111Z,966.48
2023-01-23T02:00:08.087Z,966.48
2023-01-23T02:01:08.228Z,966.45
2023-01-23T02:02:08.121Z,966.47
2023-01-23T02:03:08.028Z,966.47
2023-01-23T02:04:08.007Z,966.49
2023-01-23T02:05:07.986Z,966.42
2023-01-23T02:06:07.973Z,966.47
2023-01-23T02:07:07.951Z,966.51
2023-01-23T02:08:07.937Z,966.48
2023-01-23T02:09:07.904Z,966.49
2023-01-23T02:10:07.890Z,966.51
2023-01-23T02:11:07.862Z,966.53
2023-01-23T02:12:07.849Z,966.48
2023-01-23T02:13:07.823Z,966.51
2023-01-23T02:14:07.806Z,966.48
2023-01-23T02:15:07.780Z,966.48
2023-01-23T02:16:07.817Z,966.48
2023-01-23T02:17:07.865Z,966.53
2023-01-23T02:18:07.724Z,966.56
2023-01-23T02:19:07.699Z,966.55
2023-01-23T02:20:07.679Z,966.56
2023-01-23T02:21:07.659Z,966.55
2023-01-23T02:22:07.639Z,966.57
2023-01-23T02:23:07.619Z,966.57
2023-01-23T02:24:07.599Z,966.61
2023-01-23T02:25:07.584Z,966.6
2023-01-23T02:26:07.558Z,966.58
2023-01-23T02:27:07.536Z,966.64
2023-01-23T02:28:07.517Z,966.62
2023-01-23T02:29:07.494Z,966.69
2023-01-23T02:30:07.477Z,966.7
2023-01-23T02:31:07.622Z,966.74
2023-01-23T02:32:07.475Z,966.72
2023-01-23T02:33:07.530Z,966.7
2023-01-23T02:34:07.396Z,966.7
2023-01-23T02:35:07.375Z,966.66
2023-01-23T02:36:07.353Z,966.67
2023-01-23T02:37:07.333Z,966.67
2023-01-23T02:38:07.314Z,966.65
2023-01-23T02:39:07.300Z,966.68
2023-01-23T02:40:07.275Z,966.64
2023-01-23T02:41:07.249Z,966.68
2023-01-23T02:42:07.231Z,966.62
2023-01-23T02:43:07.225Z,966.61
2023-01-23T02:44:07.197Z,966.62
2023-01-23T02:45:07.170Z,966.59
2023-01-23T02:46:07.243Z,966.6
2023-01-23T02:47:07.127Z,966.61
2023-01-23T02:48:07.107Z,966.58
2023-01-23T02:49:07.202Z,966.56
2023-01-23T02:50:07.069Z,966.58
2023-01-23T02:51:07.180Z,966.6
2023-01-23T02:52:07.041Z,966.59
2023-01-23T02:53:07.007Z,966.61
2023-01-23T02:54:06.983Z,966.58
2023-01-23T02:55:06.965Z,966.61
2023-01-23T02:56:06.942Z,966.6
2023-01-23T02:57:06.924Z,966.62
2023-01-23T02:58:06.903Z,966.65
2023-01-23T02:59:06.886Z,966.62
2023-01-23T03:00:06.862Z,966.64
2023-01-23T03:01:06.875Z,966.65
2023-01-23T03:02:06.884Z,966.67
2023-01-23T03:03:06.802Z,966.59
2023-01-23T03:04:06.781Z,966.7
2023-01-23T03:05:06.971Z,966.68
2023-01-23T03:06:06.739Z,966.59
2023-01-23T03:07:06.719Z,966.68
2023-01-23T03:08:06.698Z,966.65
2023-01-23T03:09:06.681Z,966.65
2023-01-23T03:10:06.660Z,966.65
2023-01-23T03:11:06.649Z,966.59
2023-01-23T03:12:06.616Z,966.54
2023-01-23T03:13:06.600Z,966.57
2023-01-23T03:14:06.583Z,966.57
2023-01-23T03:15:06.560Z,966.55
2023-01-23T03:16:06.586Z,966.57
2023-01-23T03:17:06.524Z,966.55
2023-01-23T03:18:06.498Z,966.53
2023-01-23T03:19:06.482Z,966.53
2023-01-23T03:20:06.461Z,966.54
2023-01-23T03:21:06.552Z,966.56
2023-01-23T03:22:06.413Z,966.51
2023-01-23T03:23:06.398Z,966.51
2023-01-23T03:24:06.371Z,966.56
2023-01-23T03:25:06.353Z,966.56
2023-01-23T03:26:06.332Z,966.55
2023-01-23T03:27:06.324Z,966.53
2023-01-23T03:28:06.292Z,966.49
2023-01-23T03:29:06.275Z,966.52
2023-01-23T03:30:06.248Z,966.51
2023-01-23T03:31:06.291Z,966.51
2023-01-23T03:32:06.225Z,966.51
2023-01-23T03:33:06.190Z,966.54
2023-01-23T03:50:07.812Z,966.53
2023-01-23T03:51:07.743Z,966.55
2023-01-23T03:52:07.625Z,966.53
2023-01-23T03:53:07.602Z,966.52
2023-01-23T03:54:07.579Z,966.53
2023-01-23T03:55:07.560Z,966.54
2023-01-23T03:56:07.538Z,966.52
2023-01-23T03:57:07.514Z,966.54
2023-01-23T03:58:07.494Z,966.49
2023-01-23T03:59:07.475Z,966.47
2023-01-23T04:00:07.450Z,966.49
2023-01-23T04:01:07.458Z,966.45
2023-01-23T04:02:07.411Z,966.36
2023-01-23T04:03:07.512Z,966.39
2023-01-23T04:04:07.365Z,966.41
2023-01-23T04:05:07.347Z,966.45
2023-01-23T04:06:07.451Z,966.45
2023-01-23T04:07:07.312Z,966.49
2023-01-23T04:08:07.301Z,966.51
2023-01-23T04:09:07.262Z,966.51
2023-01-23T04:10:07.241Z,966.5
2023-01-23T04:11:07.235Z,966.56
2023-01-23T04:12:07.198Z,966.53
2023-01-23T04:13:07.178Z,966.56
2023-01-23T04:14:07.157Z,966.56
2023-01-23T04:15:07.137Z,966.56
2023-01-23T04:16:07.121Z,966.54
2023-01-23T04:17:07.096Z,966.58
2023-01-23T04:18:07.079Z,966.55
2023-01-23T04:19:07.057Z,966.59
2023-01-23T04:20:07.031Z,966.59
2023-01-23T04:21:07.017Z,966.62
2023-01-23T04:22:07.111Z,966.62
2023-01-23T04:23:06.981Z,966.71
2023-01-23T04:24:06.951Z,966.68
2023-01-23T04:25:06.934Z,966.7
2023-01-23T04:26:06.908Z,966.73
2023-01-23T04:27:06.916Z,966.73
2023-01-23T04:28:06.896Z,966.75
2023-01-23T04:29:06.875Z,966.76
2023-01-23T04:30:06.856Z,966.81
2023-01-23T04:31:06.997Z,966.76
2023-01-23T04:32:06.818Z,966.74
2023-01-23T04:33:06.793Z,966.72
2023-01-23T04:34:06.776Z,966.77
2023-01-23T04:35:06.751Z,966.73
2023-01-23T04:36:06.752Z,966.75
2023-01-23T04:37:06.712Z,966.75
2023-01-23T04:38:06.807Z,966.71
2023-01-23T04:39:06.680Z,966.74
2023-01-23T04:40:06.648Z,966.76
2023-01-23T04:41:06.631Z,966.75
2023-01-23T04:42:06.626Z,966.76
2023-01-23T04:43:06.589Z,966.78
2023-01-23T04:44:06.567Z,966.82
2023-01-23T04:45:06.545Z,966.81
2023-01-23T04:46:06.594Z,966.79
2023-01-23T04:47:06.507Z,966.84
2023-01-23T04:48:06.488Z,966.88
2023-01-23T04:49:06.463Z,966.91
2023-01-23T04:50:06.442Z,966.95
2023-01-23T04:51:06.467Z,966.94
2023-01-23T04:52:06.402Z,966.89
2023-01-23T04:53:06.380Z,966.9
2023-01-23T04:54:06.480Z,966.89
2023-01-23T04:55:06.347Z,966.84
2023-01-23T04:56:06.318Z,966.84
2023-01-23T04:57:06.297Z,966.8
2023-01-23T04:58:06.281Z,966.83
2023-01-23T04:59:06.255Z,966.89
2023-01-23T05:00:06.235Z,966.84
2023-01-23T05:01:06.275Z,966.89
2023-01-23T05:02:06.256Z,966.85
2023-01-23T05:03:06.170Z,966.91
2023-01-23T05:04:06.161Z,966.93
2023-01-23T05:05:06.141Z,966.93
2023-01-23T05:06:06.119Z,966.96
2023-01-23T05:07:06.085Z,966.98
2023-01-23T05:08:06.071Z,966.99
2023-01-23T05:09:06.045Z,967.01
2023-01-23T05:10:06.141Z,967.02
2023-01-23T05:11:06.001Z,967.05
2023-01-23T05:12:05.985Z,967.08
2023-01-23T05:13:05.959Z,967.12
2023-01-23T05:14:05.941Z,967.1
2023-01-23T05:15:05.923Z,967.16
2023-01-23T05:16:05.939Z,967.18
2023-01-23T05:17:05.885Z,967.14
2023-01-23T05:18:05.877Z,967.22
2023-01-23T05:19:05.836Z,967.2
2023-01-23T05:20:05.813Z,967.17
2023-01-23T05:21:05.794Z,967.2
2023-01-23T05:22:05.778Z,967.17
2023-01-23T05:23:05.758Z,967.13
2023-01-23T05:24:05.728Z,967.13
2023-01-23T05:25:05.712Z,967.11
2023-01-23T05:26:05.809Z,967.12
2023-01-23T05:27:05.674Z,967.12
2023-01-23T05:28:05.649Z,967.12
2023-01-23T05:29:05.622Z,967.09
2023-01-23T05:30:05.599Z,967.12
2023-01-23T05:31:05.713Z,967.09
2023-01-23T05:32:05.558Z,967.09
2023-01-23T05:33:05.538Z,967.1
2023-01-23T05:34:05.514Z,967.07
2023-01-23T05:35:05.492Z,967.1
2023-01-23T05:36:05.471Z,967.09
2023-01-23T05:37:05.450Z,967.05
2023-01-23T05:38:05.428Z,967.1
2023-01-23T05:39:05.411Z,967.09
2023-01-23T05:40:05.389Z,967.14
2023-01-23T05:41:05.370Z,967.19
2023-01-23T05:42:05.485Z,967.16
2023-01-23T05:43:05.325Z,967.15
2023-01-23T05:44:05.300Z,967.19
2023-01-23T05:45:05.282Z,967.2
2023-01-23T05:46:05.322Z,967.25
2023-01-23T05:47:05.661Z,967.27
2023-01-23T05:48:05.637Z,967.28
2023-01-23T05:49:05.618Z,967.33
2023-01-23T05:50:05.599Z,967.36
2023-01-23T05:51:05.624Z,967.41
2023-01-23T05:52:05.558Z,967.43
2023-01-23T05:53:05.538Z,967.45
2023-01-23T05:54:05.510Z,967.44
2023-01-23T05:55:05.490Z,967.48
2023-01-23T05:56:05.466Z,967.47
2023-01-23T05:57:05.446Z,967.51
2023-01-23T05:58:05.563Z,967.47
2023-01-23T05:59:05.499Z,967.51
2023-01-23T06:00:05.382Z,967.52
2023-01-23T06:01:05.373Z,967.43
2023-01-23T06:02:05.348Z,967.46
2023-01-23T06:03:05.332Z,967.46
2023-01-23T06:04:05.298Z,967.49
2023-01-23T06:05:05.276Z,967.51
2023-01-23T06:06:05.253Z,967.5
2023-01-23T06:07:05.233Z,967.51
2023-01-23T06:08:05.213Z,967.54
2023-01-23T06:09:05.200Z,967.52
2023-01-23T06:10:05.168Z,967.56
2023-01-23T06:11:05.150Z,967.59
2023-01-23T06:12:05.150Z,967.61
2023-01-23T06:13:05.106Z,967.6
2023-01-23T06:14:05.204Z,967.6
2023-01-23T06:15:05.077Z,967.58
2023-01-23T06:16:05.056Z,967.61
2023-01-23T06:17:05.022Z,967.59
2023-01-23T06:18:05.043Z,967.63
2023-01-23T06:19:04.989Z,967.66
2023-01-23T06:20:04.959Z,967.65
2023-01-23T06:21:04.937Z,967.68
2023-01-23T06:22:04.916Z,967.73
2023-01-23T06:23:04.895Z,967.74
2023-01-23T06:24:04.876Z,967.76
2023-01-23T06:25:05.383Z,967.75
2023-01-23T06:26:05.364Z,967.77
2023-01-23T06:27:05.339Z,967.74
2023-01-23T06:28:05.323Z,967.76
2023-01-23T06:29:05.298Z,967.73
2023-01-23T06:30:05.414Z,967.78
2023-01-23T06:31:05.285Z,967.78
2023-01-23T06:32:05.236Z,967.78
2023-01-23T06:33:05.215Z,967.79
2023-01-23T06:34:05.196Z,967.83
2023-01-23T06:35:05.172Z,967.83
2023-01-23T06:36:05.152Z,967.83
2023-01-23T06:37:05.131Z,967.9
2023-01-23T06:38:05.113Z,967.86
2023-01-23T06:39:05.088Z,967.99
2023-01-23T06:40:05.071Z,967.96
2023-01-23T06:41:05.049Z,967.96
2023-01-23T06:42:05.028Z,968
2023-01-23T06:43:05.008Z,967.98
2023-01-23T06:44:04.988Z,968
2023-01-23T06:45:04.963Z,968
2023-01-23T06:46:05.172Z,967.99
2023-01-23T06:47:04.929Z,968.02
2023-01-23T06:48:04.903Z,968.03
2023-01-23T06:49:06.260Z,968.03
2023-01-23T06:50:05.813Z,968.01
2023-01-23T06:51:05.825Z,968.05
2023-01-23T06:52:05.780Z,968.02
2023-01-23T06:53:05.747Z,968.06
2023-01-23T06:54:05.730Z,968.11
2023-01-23T06:55:05.705Z,968.1
2023-01-23T06:56:05.693Z,968.1
2023-01-23T06:57:05.664Z,968.14
2023-01-23T06:58:05.648Z,968.11
2023-01-23T06:59:05.626Z,968.16
2023-01-23T07:00:05.604Z,968.19
2023-01-23T07:01:05.885Z,968.23
2023-01-23T07:02:05.995Z,968.25
2023-01-23T07:03:05.867Z,968.23
2023-01-23T07:04:05.827Z,968.29
2023-01-23T07:05:05.803Z,968.23
2023-01-23T07:06:05.783Z,968.24
2023-01-23T07:07:05.771Z,968.29
2023-01-23T07:08:05.743Z,968.26
2023-01-23T07:09:05.720Z,968.23
2023-01-23T07:10:05.705Z,968.23
2023-01-23T07:11:05.689Z,968.27
2023-01-23T07:12:05.667Z,968.28
2023-01-23T07:13:05.646Z,968.29
2023-01-23T07:14:05.638Z,968.28
2023-01-23T07:15:05.599Z,968.31
2023-01-23T07:16:05.644Z,968.34
2023-01-23T07:17:05.562Z,968.39
2023-01-23T07:18:05.656Z,968.39
2023-01-23T07:19:05.536Z,968.38
2023-01-23T07:20:05.511Z,968.36
2023-01-23T07:21:05.480Z,968.4
2023-01-23T07:22:05.465Z,968.42
2023-01-23T07:23:05.438Z,968.42
2023-01-23T07:24:05.412Z,968.44
2023-01-23T07:25:05.398Z,968.45
2023-01-23T07:26:05.372Z,968.5
2023-01-23T07:27:05.352Z,968.51
2023-01-23T07:28:05.332Z,968.55
2023-01-23T07:29:05.312Z,968.57
2023-01-23T07:30:05.291Z,968.54
2023-01-23T07:31:05.424Z,968.55
2023-01-23T07:32:05.261Z,968.54
2023-01-23T07:33:05.231Z,968.49
2023-01-23T07:34:05.334Z,968.56
2023-01-23T07:35:05.198Z,968.52
2023-01-23T07:36:05.169Z,968.58
2023-01-23T07:37:05.159Z,968.56
2023-01-23T07:38:05.128Z,968.58
2023-01-23T07:39:05.110Z,968.55
2023-01-23T07:40:05.088Z,968.58
2023-01-23T07:41:05.069Z,968.56
2023-01-23T07:42:05.053Z,968.52
2023-01-23T07:43:05.029Z,968.63
2023-01-23T07:44:05.009Z,968.59
2023-01-23T07:45:04.991Z,968.58
2023-01-23T07:46:04.967Z,968.61
2023-01-23T07:47:04.969Z,968.64
2023-01-23T07:48:04.928Z,968.62
2023-01-23T07:49:04.935Z,968.64
2023-01-23T07:50:05.182Z,968.65
2023-01-23T07:51:05.071Z,968.66
2023-01-23T07:52:05.009Z,968.72
2023-01-23T07:53:04.990Z,968.7
2023-01-23T07:54:04.963Z,968.65
2023-01-23T07:55:04.945Z,968.69
2023-01-23T07:56:04.926Z,968.72
2023-01-23T07:57:04.908Z,968.73
2023-01-23T07:58:04.896Z,968.69
2023-01-23T07:59:04.881Z,968.68
2023-01-23T08:00:04.844Z,968.75
2023-01-23T08:01:04.835Z,968.74
2023-01-23T08:02:04.816Z,968.75
2023-01-23T08:03:04.790Z,968.75
2023-01-23T08:04:04.802Z,968.73
2023-01-23T08:05:04.749Z,968.73
2023-01-23T08:06:04.854Z,968.71
2023-01-23T08:07:04.724Z,968.68
2023-01-23T08:08:12.915Z,968.68
2023-01-23T08:09:04.675Z,968.65
2023-01-23T08:10:04.651Z,968.64
2023-01-23T08:11:04.625Z,968.59
2023-01-23T08:12:04.609Z,968.6
2023-01-23T08:13:04.587Z,968.62
2023-01-23T08:14:04.609Z,968.62
2023-01-23T08:15:04.549Z,968.65
2023-01-23T08:16:04.561Z,968.68
2023-01-23T08:17:04.551Z,968.7
2023-01-23T08:18:04.521Z,968.72
2023-01-23T08:19:04.491Z,968.67
2023-01-23T08:20:04.449Z,968.73
2023-01-23T08:21:04.429Z,968.74
2023-01-23T08:22:04.539Z,968.7
2023-01-23T08:23:04.391Z,968.74
2023-01-23T08:24:04.370Z,968.77
2023-01-23T08:25:04.361Z,968.77
2023-01-23T08:26:04.331Z,968.75
2023-01-23T08:27:04.323Z,968.78
2023-01-23T08:28:04.296Z,968.76
2023-01-23T08:29:04.276Z,968.81
2023-01-23T08:30:04.270Z,968.83
2023-01-23T08:31:06.357Z,968.8
2023-01-23T08:32:04.255Z,968.84
2023-01-23T08:33:04.208Z,968.78
2023-01-23T08:34:04.173Z,968.87
2023-01-23T08:35:04.151Z,968.87
2023-01-23T08:36:04.136Z,968.85
2023-01-23T08:37:04.110Z,968.88
2023-01-23T08:38:04.208Z,968.84
2023-01-23T08:39:04.075Z,968.92
2023-01-23T08:40:04.056Z,968.92
2023-01-23T08:41:04.032Z,968.93
2023-01-23T08:42:04.013Z,968.9
2023-01-23T08:43:03.993Z,968.9
2023-01-23T08:44:03.982Z,968.91
2023-01-23T08:45:03.955Z,968.91
2023-01-23T08:46:03.967Z,968.91
2023-01-23T08:47:03.915Z,968.9
2023-01-23T08:48:03.895Z,968.96
2023-01-23T08:49:03.879Z,968.95
2023-01-23T08:50:03.855Z,968.98
2023-01-23T08:51:03.886Z,968.94
2023-01-23T08:52:03.818Z,968.94
2023-01-23T08:53:03.807Z,968.91
2023-01-23T08:54:03.896Z,968.92
2023-01-23T08:55:03.757Z,968.95
2023-01-23T08:56:03.743Z,968.93
2023-01-23T08:57:03.720Z,968.97
2023-01-23T08:58:03.695Z,968.97
2023-01-23T08:59:03.686Z,969.01
2023-01-23T09:00:03.656Z,968.98
2023-01-23T09:01:03.713Z,969
2023-01-23T09:02:03.693Z,969.07
2023-01-23T09:03:03.608Z,969.08
2023-01-23T09:04:03.593Z,969.11
2023-01-23T09:05:03.557Z,969.09
2023-01-23T09:06:03.559Z,969.15
2023-01-23T09:07:03.524Z,969.1
2023-01-23T09:08:03.501Z,969.15
2023-01-23T09:09:03.490Z,969.17
2023-01-23T09:10:03.580Z,969.11
2023-01-23T09:11:03.442Z,969.09
2023-01-23T09:12:03.422Z,969.05
2023-01-23T09:13:03.402Z,969.05
2023-01-23T09:14:03.381Z,969.05
2023-01-23T09:15:03.362Z,969.04
2023-01-23T09:16:03.344Z,969.07
2023-01-23T09:17:03.324Z,969
2023-01-23T09:18:03.306Z,968.98
2023-01-23T09:19:03.288Z,968.85
2023-01-23T09:20:03.264Z,968.88
2023-01-23T09:21:03.249Z,968.84
2023-01-23T09:22:03.225Z,968.83
2023-01-23T09:23:03.207Z,968.82
2023-01-23T09:24:03.186Z,968.7
2023-01-23T09:25:03.168Z,968.7
2023-01-23T09:26:03.269Z,968.74
2023-01-23T09:27:03.128Z,968.73
2023-01-23T09:28:03.124Z,968.77
2023-01-23T09:29:03.088Z,968.8
2023-01-23T09:30:03.068Z,968.81
2023-01-23T09:31:03.088Z,968.8
2023-01-23T09:32:03.093Z,968.84
2023-01-23T09:33:03.020Z,968.87
2023-01-23T09:34:02.992Z,968.87
2023-01-23T09:35:02.982Z,968.88
2023-01-23T09:36:02.960Z,968.83
2023-01-23T09:37:02.945Z,968.82
2023-01-23T09:38:02.911Z,968.88
2023-01-23T09:39:02.894Z,968.91
2023-01-23T09:40:02.887Z,968.96
2023-01-23T09:41:02.853Z,968.93
2023-01-23T09:42:02.954Z,968.92
2023-01-23T09:43:02.820Z,968.88
2023-01-23T09:44:02.794Z,968.88
2023-01-23T09:45:02.779Z,968.88
2023-01-23T09:46:02.815Z,968.89
2023-01-23T09:47:02.841Z,968.83
2023-01-23T09:48:02.717Z,968.84
2023-01-23T09:49:02.698Z,968.82
2023-01-23T09:50:02.686Z,968.88
2023-01-23T09:51:02.745Z,968.82
2023-01-23T09:52:02.640Z,968.87
2023-01-23T09:53:02.618Z,968.83
2023-01-23T09:54:02.620Z,968.84
2023-01-23T09:55:02.587Z,968.88
2023-01-23T09:56:02.566Z,968.93
2023-01-23T09:57:02.542Z,968.97
2023-01-23T09:58:02.648Z,969.02
2023-01-23T09:59:02.524Z,968.97
2023-01-23T10:00:02.488Z,968.91
2023-01-23T10:01:02.500Z,968.88
2023-01-23T10:02:02.488Z,968.85
2023-01-23T10:03:02.448Z,968.84
2023-01-23T10:04:02.410Z,968.81
2023-01-23T10:05:02.393Z,968.81
2023-01-23T10:06:02.369Z,968.81
2023-01-23T10:07:02.352Z,968.84
2023-01-23T10:08:02.347Z,968.84
2023-01-23T10:09:02.318Z,968.84
2023-01-23T10:10:02.310Z,968.86
2023-01-23T10:11:02.274Z,968.86
2023-01-23T10:12:02.260Z,968.85
2023-01-23T10:13:02.235Z,968.83
2023-01-23T10:14:02.347Z,968.75
2023-01-23T10:15:02.202Z,968.79
2023-01-23T10:16:02.184Z,968.8
2023-01-23T10:17:02.193Z,968.79
2023-01-23T10:18:02.146Z,968.79
2023-01-23T10:19:02.133Z,968.8
2023-01-23T10:20:02.136Z,968.79
2023-01-23T10:21:02.099Z,968.79
2023-01-23T10:22:02.102Z,968.7
2023-01-23T10:23:02.056Z,968.65
2023-01-23T10:24:02.066Z,968.7
2023-01-23T10:25:02.044Z,968.77
2023-01-23T10:26:01.996Z,968.8
2023-01-23T10:27:01.976Z,968.79
2023-01-23T10:28:01.957Z,968.8
2023-01-23T10:29:01.950Z,968.79
2023-01-23T10:30:02.054Z,968.84
2023-01-23T10:31:01.998Z,968.83
2023-01-23T10:32:01.882Z,968.82
2023-01-23T10:33:01.864Z,968.84
2023-01-23T10:34:03.412Z,968.89
2023-01-23T10:35:01.846Z,968.87
2023-01-23T10:36:01.833Z,968.89
2023-01-23T10:37:01.789Z,968.86
2023-01-23T10:38:01.775Z,968.91
2023-01-23T10:39:01.752Z,968.89
2023-01-23T10:40:01.733Z,968.89
2023-01-23T10:41:01.718Z,968.88
2023-01-23T10:42:02.874Z,968.9
2023-01-23T10:43:01.681Z,968.9
2023-01-23T10:44:01.658Z,968.87
2023-01-23T10:45:01.642Z,968.9
2023-01-23T10:46:01.785Z,968.87
2023-01-23T10:47:01.604Z,968.84
2023-01-23T10:48:01.731Z,968.87
2023-01-23T10:49:01.590Z,968.86
2023-01-23T10:50:01.547Z,968.88
2023-01-23T10:51:01.567Z,968.9
2023-01-23T10:52:01.548Z,968.89
2023-01-23T10:53:01.492Z,968.88
2023-01-23T10:54:04.483Z,968.91
2023-01-23T10:55:01.462Z,968.93
2023-01-23T10:56:01.452Z,968.93
2023-01-23T10:57:01.462Z,968.92
2023-01-23T10:58:01.411Z,968.9
2023-01-23T10:59:01.404Z,968.91
2023-01-23T11:00:01.385Z,968.89
2023-01-23T11:01:01.441Z,968.88
2023-01-23T11:02:01.506Z,968.86
2023-01-23T11:03:01.423Z,968.87
2023-01-23T11:04:01.283Z,968.91
2023-01-23T11:05:01.303Z,968.96
2023-01-23T11:06:01.248Z,968.97
2023-01-23T11:07:01.233Z,968.88
2023-01-23T11:08:01.208Z,968.9
2023-01-23T11:09:01.197Z,968.79
2023-01-23T11:10:01.173Z,968.83
2023-01-23T11:11:01.153Z,968.77
2023-01-23T11:12:01.143Z,968.74
2023-01-23T11:13:01.118Z,968.76
2023-01-23T11:14:01.101Z,968.74
2023-01-23T11:15:01.080Z,968.78
2023-01-23T11:16:01.074Z,968.77
2023-01-23T11:17:01.041Z,968.8
2023-01-23T11:18:01.161Z,968.81
2023-01-23T11:19:01.004Z,968.78
2023-01-23T11:20:00.980Z,968.76
2023-01-23T11:21:00.963Z,968.72
2023-01-23T11:22:00.941Z,968.75
2023-01-23T11:23:00.923Z,968.77
2023-01-23T11:24:02.589Z,968.81
2023-01-23T11:25:00.890Z,968.84
2023-01-23T11:26:00.867Z,968.89
2023-01-23T11:27:00.849Z,968.94
2023-01-23T11:28:00.830Z,968.94
2023-01-23T11:29:00.812Z,968.95
2023-01-23T11:30:00.790Z,968.93
2023-01-23T11:31:12.689Z,968.88
2023-01-23T11:32:00.870Z,968.88
2023-01-23T11:33:00.732Z,968.84
2023-01-23T11:34:00.940Z,968.85
2023-01-23T11:35:00.708Z,968.82
2023-01-23T11:36:00.680Z,968.83
2023-01-23T11:37:00.656Z,968.81
2023-01-23T11:38:00.639Z,968.8
2023-01-23T11:39:00.619Z,968.78
2023-01-23T11:40:00.602Z,968.82
2023-01-23T11:41:00.600Z,968.79
2023-01-23T11:42:00.564Z,968.8
2023-01-23T11:43:00.544Z,968.79
2023-01-23T11:44:00.532Z,968.77
2023-01-23T11:45:00.506Z,968.79
2023-01-23T11:46:01.095Z,968.77
2023-01-23T11:47:01.018Z,968.75
2023-01-23T11:48:00.997Z,968.7
2023-01-23T11:49:00.978Z,968.7
2023-01-23T11:50:01.093Z,968.78
2023-01-23T11:51:00.962Z,968.82
2023-01-23T11:52:00.918Z,968.7
2023-01-23T11:53:00.902Z,968.83
2023-01-23T11:54:00.892Z,968.79
2023-01-23T11:55:00.862Z,968.82
2023-01-23T11:56:00.848Z,968.76
2023-01-23T11:57:00.821Z,968.74
2023-01-23T11:58:00.802Z,968.73
2023-01-23T11:59:00.794Z,968.66
2023-01-23T12:00:00.765Z,968.65
2023-01-23T12:01:00.746Z,968.61
2023-01-23T12:02:04.042Z,968.64
2023-01-23T12:03:00.745Z,968.57
2023-01-23T12:04:00.746Z,968.56
2023-01-23T12:05:00.668Z,968.59
2023-01-23T12:06:14.048Z,968.57
2023-01-23T12:07:00.629Z,968.58
2023-01-23T12:08:00.614Z,968.61
2023-01-23T12:09:00.592Z,968.57
2023-01-23T12:10:00.576Z,968.57
2023-01-23T12:11:00.553Z,968.62
2023-01-23T12:12:00.536Z,968.57
2023-01-23T12:13:00.515Z,968.6
2023-01-23T12:14:00.646Z,968.62
2023-01-23T12:15:00.477Z,968.66
2023-01-23T12:16:00.492Z,968.68
2023-01-23T12:17:00.436Z,968.7
2023-01-23T12:19:00.400Z,968.66
2023-01-23T12:20:00.389Z,968.68
2023-01-23T12:21:00.361Z,968.66
2023-01-23T12:22:00.461Z,968.68
2023-01-23T12:23:00.333Z,968.65
2023-01-23T12:24:00.303Z,968.62
2023-01-23T12:25:00.286Z,968.6
2023-01-23T12:26:00.266Z,968.59
2023-01-23T12:27:00.250Z,968.52
2023-01-23T12:28:00.229Z,968.52
2023-01-23T12:29:01.237Z,968.48
2023-01-23T12:30:00.190Z,968.47
2023-01-23T12:31:00.216Z,968.46
2023-01-23T12:32:00.243Z,968.51
2023-01-23T12:33:00.135Z,968.49
2023-01-23T12:34:00.118Z,968.57
2023-01-23T12:35:00.109Z,968.52
2023-01-23T12:36:00.104Z,968.48
2023-01-23T12:37:10.143Z,968.5
2023-01-23T12:38:00.160Z,968.5
2023-01-23T12:39:00.021Z,968.48
2023-01-23T12:40:00.021Z,968.46
2023-01-23T12:40:59.981Z,968.46
2023-01-23T12:41:59.964Z,968.47
2023-01-23T12:42:59.945Z,968.44
2023-01-23T12:43:59.927Z,968.47
2023-01-23T12:44:59.924Z,968.43
2023-01-23T12:45:59.899Z,968.4
2023-01-23T12:46:59.896Z,968.35
2023-01-23T12:48:00.987Z,968.36
2023-01-23T12:48:59.831Z,968.32